createdAt,value
2024-04-25T00:01:49.656Z,5.20
2024-04-25T00:04:16.672Z,5.20
2024-04-25T00:06:46.192Z,5.20
2024-04-25T00:09:13.088Z,5.30
2024-04-25T00:11:40.214Z,5.30
2024-04-25T00:14:07.393Z,5.30
2024-04-25T00:16:34.384Z,5.40
2024-04-25T00:19:03.113Z,5.40
2024-04-25T00:21:30.110Z,5.40
2024-04-25T00:23:58.259Z,5.40
2024-04-25T00:26:25.123Z,5.40
2024-04-25T00:28:51.984Z,5.30
2024-04-25T00:31:21.553Z,5.40
2024-04-25T00:33:48.792Z,5.40
2024-04-25T00:36:15.666Z,5.30
2024-04-25T00:38:42.540Z,5.30
2024-04-25T00:41:09.437Z,5.30
2024-04-25T00:43:36.284Z,5.30
2024-04-25T00:46:03.246Z,5.30
2024-04-25T00:48:31.533Z,5.20
2024-04-25T00:51:02.669Z,5.10
2024-04-25T00:53:30.614Z,5.10
2024-04-25T00:56:00.488Z,4.90
2024-04-25T00:58:28.524Z,4.90
2024-04-25T01:00:58.193Z,4.80
2024-04-25T01:03:25.498Z,4.70
2024-04-25T01:05:55.616Z,4.60
2024-04-25T01:08:23.897Z,4.60
2024-04-25T01:10:53.052Z,4.60
2024-04-25T01:13:19.935Z,4.60
2024-04-25T01:15:46.975Z,4.60
2024-04-25T01:18:17.169Z,4.60
2024-04-25T01:20:44.205Z,4.60
2024-04-25T01:23:13.171Z,4.60
2024-04-25T01:25:40.623Z,4.60
2024-04-25T01:28:07.709Z,4.60
2024-04-25T01:30:35.331Z,4.60
2024-04-25T01:33:04.709Z,4.50
2024-04-25T01:35:34.223Z,4.50
2024-04-25T01:38:01.707Z,4.40
2024-04-25T01:40:28.956Z,4.40
2024-04-25T01:42:55.850Z,4.30
2024-04-25T01:45:22.730Z,4.30
2024-04-25T01:47:52.420Z,4.30
2024-04-25T01:50:19.348Z,4.20
2024-04-25T01:52:46.246Z,4.20
2024-04-25T01:55:13.761Z,4.20
2024-04-25T01:57:40.629Z,4.10
2024-04-25T02:00:08.421Z,4.10
2024-04-25T02:02:35.355Z,4.10
2024-04-25T02:05:02.433Z,4.10
2024-04-25T02:07:29.351Z,4.00
2024-04-25T02:09:56.205Z,4.00
2024-04-25T02:12:23.023Z,4.10
2024-04-25T02:14:58.919Z,4.10
2024-04-25T02:17:26.186Z,4.00
2024-04-25T02:19:53.112Z,4.10
2024-04-25T02:22:38.708Z,4.10
2024-04-25T02:25:16.187Z,4.10
2024-04-25T02:27:43.228Z,4.10
2024-04-25T02:30:10.603Z,4.20
2024-04-25T02:32:37.575Z,4.30
2024-04-25T02:35:04.847Z,4.30
2024-04-25T02:37:31.743Z,4.40
2024-04-25T02:39:58.572Z,4.40
2024-04-25T02:42:25.391Z,4.50
2024-04-25T02:44:52.228Z,4.50
2024-04-25T02:47:19.158Z,4.50
2024-04-25T02:49:46.043Z,4.50
2024-04-25T02:52:12.926Z,4.50
2024-04-25T02:54:40.688Z,4.40
2024-04-25T02:57:07.563Z,4.40
2024-04-25T02:59:34.542Z,4.40
2024-04-25T03:02:04.753Z,4.40
2024-04-25T03:04:32.398Z,4.40
2024-04-25T03:06:59.317Z,4.40
2024-04-25T03:09:26.187Z,4.40
2024-04-25T03:11:53.053Z,4.40
2024-04-25T03:14:21.639Z,4.40
2024-04-25T03:16:51.515Z,4.40
2024-04-25T03:19:20.693Z,4.40
2024-04-25T03:21:47.516Z,4.40
2024-04-25T03:24:14.338Z,4.50
2024-04-25T03:26:41.264Z,4.50
2024-04-25T03:29:08.306Z,4.50
2024-04-25T03:31:38.105Z,4.50
2024-04-25T03:34:05.961Z,4.60
2024-04-25T03:36:32.836Z,4.50
2024-04-25T03:38:59.665Z,4.50
2024-04-25T03:41:29.380Z,4.50
2024-04-25T03:43:58.383Z,4.40
2024-04-25T03:46:25.511Z,4.40
2024-04-25T03:48:55.581Z,4.40
2024-04-25T03:51:22.482Z,4.40
2024-04-25T03:53:49.381Z,4.40
2024-04-25T03:56:16.412Z,4.40
2024-04-25T03:58:43.286Z,4.40
2024-04-25T04:01:11.360Z,4.30
2024-04-25T04:03:38.249Z,4.40
2024-04-25T04:06:05.470Z,4.40
2024-04-25T04:08:32.433Z,4.40
2024-04-25T04:11:01.358Z,4.40
2024-04-25T04:13:28.290Z,4.40
2024-04-25T04:15:55.146Z,4.40
2024-04-25T04:18:22.131Z,4.50
2024-04-25T04:20:52.049Z,4.40
2024-04-25T04:23:19.030Z,4.40
2024-04-25T04:25:46.662Z,4.40
2024-04-25T04:28:15.903Z,4.40
2024-04-25T04:30:42.915Z,4.40
2024-04-25T04:33:10.040Z,4.40
2024-04-25T04:35:38.048Z,4.40
2024-04-25T04:38:06.119Z,4.50
2024-04-25T04:40:32.996Z,4.50
2024-04-25T04:42:59.956Z,4.50
2024-04-25T04:45:26.949Z,4.50
2024-04-25T04:47:53.919Z,4.60
2024-04-25T04:50:20.933Z,4.60
2024-04-25T04:52:48.092Z,4.70
2024-04-25T04:55:16.112Z,4.70
2024-04-25T04:57:42.965Z,4.70
2024-04-25T05:00:10.384Z,4.70
2024-04-25T05:02:37.655Z,4.70
2024-04-25T05:05:04.866Z,4.70
2024-04-25T05:07:36.007Z,4.70
2024-04-25T05:10:03.633Z,4.70
2024-04-25T05:12:30.500Z,4.80
2024-04-25T05:14:59.386Z,4.80
2024-04-25T05:17:26.385Z,4.80
2024-04-25T05:19:54.271Z,4.80
2024-04-25T05:22:21.131Z,4.80
2024-04-25T05:24:48.311Z,4.80
2024-04-25T05:27:15.149Z,4.90
2024-04-25T05:29:42.030Z,4.90
2024-04-25T05:32:09.306Z,4.90
2024-04-25T05:34:36.554Z,5.00
2024-04-25T05:37:03.461Z,5.00
2024-04-25T05:39:30.461Z,5.10
2024-04-25T05:41:57.305Z,5.20
2024-04-25T05:44:24.228Z,5.20
2024-04-25T05:46:51.063Z,5.20
2024-04-25T05:49:17.973Z,5.20
2024-04-25T05:51:44.815Z,5.20
2024-04-25T05:54:11.659Z,5.30
2024-04-25T05:56:38.611Z,5.30
2024-04-25T05:59:05.594Z,5.40
2024-04-25T06:01:32.538Z,5.50
2024-04-25T06:04:05.785Z,5.50
2024-04-25T06:06:34.091Z,5.60
2024-04-25T06:09:00.961Z,5.60
2024-04-25T06:11:30.049Z,5.60
2024-04-25T06:13:57.467Z,5.60
2024-04-25T06:16:25.923Z,5.60
2024-04-25T06:18:54.804Z,5.60
2024-04-25T06:21:21.722Z,5.60
2024-04-25T06:23:48.615Z,5.60
2024-04-25T06:26:15.589Z,5.70
2024-04-25T06:28:44.122Z,5.70
2024-04-25T06:31:11.085Z,5.70
2024-04-25T06:33:41.484Z,5.70
2024-04-25T06:36:11.282Z,5.70
2024-04-25T06:38:38.600Z,5.70
2024-04-25T06:41:05.531Z,5.80
2024-04-25T06:43:35.179Z,5.80
2024-04-25T06:46:02.652Z,5.80
2024-04-25T06:48:29.660Z,5.90
2024-04-25T06:50:56.554Z,5.90
2024-04-25T06:53:25.189Z,6.00
2024-04-25T06:55:52.061Z,6.00
2024-04-25T06:58:20.729Z,6.00
2024-04-25T07:00:47.647Z,6.00
2024-04-25T07:03:15.210Z,6.00
2024-04-25T07:05:42.326Z,5.90
2024-04-25T07:08:12.128Z,5.90
2024-04-25T07:10:41.286Z,5.80
2024-04-25T07:13:08.220Z,5.80
2024-04-25T07:15:35.558Z,5.70
2024-04-25T07:18:06.339Z,5.70
2024-04-25T07:20:33.979Z,5.80
2024-04-25T07:23:01.493Z,5.70
2024-04-25T07:25:28.716Z,5.80
2024-04-25T07:27:55.739Z,5.80
2024-04-25T07:30:22.580Z,5.80
2024-04-25T07:32:49.599Z,5.90
2024-04-25T07:35:16.658Z,6.10
2024-04-25T07:37:43.687Z,6.30
2024-04-25T07:40:10.850Z,6.40
2024-04-25T07:42:37.847Z,6.50
2024-04-25T07:45:05.557Z,6.80
2024-04-25T07:47:32.474Z,7.20
2024-04-25T07:49:59.765Z,8.50
2024-04-25T07:52:30.017Z,9.70
2024-04-25T07:54:57.359Z,11.40
2024-04-25T07:57:24.288Z,13.20
2024-04-25T07:59:54.766Z,14.50
2024-04-25T08:02:22.991Z,14.60
2024-04-25T08:04:50.219Z,13.70
2024-04-25T08:07:17.201Z,12.70
2024-04-25T08:09:44.150Z,11.60
2024-04-25T08:12:11.032Z,10.60
2024-04-25T08:14:45.259Z,10.10
2024-04-25T08:17:12.553Z,10.10
2024-04-25T08:19:39.415Z,10.10
2024-04-25T08:22:07.106Z,11.20
2024-04-25T08:24:34.011Z,13.00
2024-04-25T08:27:02.283Z,14.40
2024-04-25T08:29:29.136Z,15.40
2024-04-25T08:31:56.091Z,16.30
2024-04-25T08:34:23.502Z,16.20
2024-04-25T08:36:50.559Z,15.40
2024-04-25T08:39:18.162Z,14.40
2024-04-25T08:41:49.301Z,13.30
2024-04-25T08:44:17.302Z,12.50
2024-04-25T08:46:47.107Z,11.70
2024-04-25T08:49:16.168Z,11.30
2024-04-25T08:51:44.232Z,11.10
2024-04-25T08:54:19.481Z,11.80
2024-04-25T08:56:46.432Z,13.00
2024-04-25T08:59:13.444Z,13.00
2024-04-25T09:01:41.687Z,13.70
2024-04-25T09:04:15.526Z,15.00
2024-04-25T09:06:43.462Z,15.80
2024-04-25T09:09:11.426Z,15.90
2024-04-25T09:11:41.452Z,14.90
2024-04-25T09:14:10.925Z,14.10
2024-04-25T09:16:37.995Z,13.50
2024-04-25T09:19:05.160Z,12.80
2024-04-25T09:21:31.988Z,12.70
2024-04-25T09:23:58.863Z,12.70
2024-04-25T09:26:29.835Z,12.40
2024-04-25T09:28:58.484Z,12.00
2024-04-25T09:31:26.297Z,11.40
2024-04-25T09:33:59.647Z,11.00
2024-04-25T09:36:26.812Z,10.70
2024-04-25T09:38:56.683Z,11.00
2024-04-25T09:41:23.909Z,11.60
2024-04-25T09:43:51.418Z,11.80
2024-04-25T09:46:45.169Z,11.70
2024-04-25T09:49:18.059Z,11.50
2024-04-25T09:51:55.653Z,11.90
2024-04-25T09:54:44.628Z,12.00
2024-04-25T09:57:20.167Z,12.20
2024-04-25T10:00:05.793Z,12.00
2024-04-25T10:02:33.701Z,11.90
2024-04-25T10:05:01.488Z,11.70
2024-04-25T10:07:31.102Z,11.40
2024-04-25T10:10:01.173Z,11.10
2024-04-25T10:12:28.127Z,10.80
2024-04-25T10:14:56.830Z,10.40
2024-04-25T10:17:25.351Z,10.20
2024-04-25T10:19:52.328Z,10.30
2024-04-25T10:22:24.122Z,10.50
2024-04-25T10:25:02.319Z,10.90
2024-04-25T10:27:31.690Z,11.30
2024-04-25T10:30:06.737Z,11.90
2024-04-25T10:32:36.512Z,12.10
2024-04-25T10:35:03.920Z,12.10
2024-04-25T10:37:37.878Z,12.00
2024-04-25T10:40:16.377Z,12.00
2024-04-25T10:43:05.127Z,11.90
2024-04-25T10:45:33.717Z,11.80
2024-04-25T10:48:02.210Z,11.90
2024-04-25T10:50:30.974Z,11.80
2024-04-25T10:53:00.960Z,11.80
2024-04-25T10:55:28.452Z,11.80
2024-04-25T10:57:56.752Z,11.80
2024-04-25T11:00:24.506Z,11.70
2024-04-25T11:02:56.246Z,11.60
2024-04-25T11:05:23.416Z,11.50
2024-04-25T11:07:53.243Z,11.60
2024-04-25T11:10:22.724Z,11.60
2024-04-25T11:12:50.245Z,11.50
2024-04-25T11:15:20.145Z,11.70
2024-04-25T11:18:00.143Z,11.80
2024-04-25T11:20:32.985Z,11.90
2024-04-25T11:23:17.429Z,12.00
2024-04-25T11:25:49.751Z,12.00
2024-04-25T11:28:19.078Z,12.00
2024-04-25T11:30:46.136Z,11.90
2024-04-25T11:33:20.264Z,11.70
2024-04-25T11:35:47.355Z,11.60
2024-04-25T11:38:17.094Z,11.60
2024-04-25T11:40:49.769Z,11.60
2024-04-25T11:43:20.186Z,11.60
2024-04-25T11:45:48.117Z,11.60
2024-04-25T11:48:19.642Z,11.50
2024-04-25T11:50:46.993Z,11.40
2024-04-25T11:53:14.251Z,11.40
2024-04-25T11:55:42.223Z,11.00
2024-04-25T11:58:09.780Z,10.90
2024-04-25T12:00:39.770Z,10.70
2024-04-25T12:03:07.293Z,10.60
2024-04-25T12:05:35.731Z,10.60
2024-04-25T12:08:06.617Z,10.70
2024-04-25T12:10:33.834Z,10.70
2024-04-25T12:13:02.443Z,10.70
2024-04-25T12:15:29.288Z,10.60
2024-04-25T12:17:56.507Z,10.40
2024-04-25T12:20:23.471Z,10.30
2024-04-25T12:22:52.280Z,10.30
2024-04-25T12:25:19.131Z,10.30
2024-04-25T12:27:45.946Z,10.40
2024-04-25T12:30:13.183Z,10.50
2024-04-25T12:32:40.103Z,10.50
2024-04-25T12:35:07.213Z,10.50
2024-04-25T12:37:34.123Z,10.40
2024-04-25T12:40:01.060Z,10.40
2024-04-25T12:42:29.980Z,10.40
2024-04-25T12:44:56.951Z,10.50
2024-04-25T12:47:23.935Z,10.60
2024-04-25T12:49:50.936Z,10.80
2024-04-25T12:52:17.784Z,11.00
2024-04-25T12:54:44.616Z,11.10
2024-04-25T12:57:21.788Z,11.30
2024-04-25T12:59:51.329Z,11.50
2024-04-25T13:02:21.576Z,11.60
2024-04-25T13:04:49.381Z,11.60
2024-04-25T13:07:16.404Z,11.70
2024-04-25T13:09:43.621Z,11.80
2024-04-25T13:12:11.683Z,11.90
2024-04-25T13:14:39.947Z,11.80
2024-04-25T13:17:07.020Z,11.80
2024-04-25T13:19:35.289Z,11.50
2024-04-25T13:22:06.349Z,11.40
2024-04-25T13:24:33.232Z,11.50
2024-04-25T13:27:03.111Z,11.60
2024-04-25T13:29:30.609Z,11.60
2024-04-25T13:31:57.600Z,11.50
2024-04-25T13:34:24.538Z,11.30
2024-04-25T13:36:52.366Z,11.20
2024-04-25T13:39:19.770Z,11.10
2024-04-25T13:41:46.979Z,10.80
2024-04-25T13:44:14.110Z,10.50
2024-04-25T13:46:41.137Z,10.40
2024-04-25T13:49:08.868Z,10.20
2024-04-25T13:51:35.743Z,10.00
2024-04-25T13:54:07.760Z,9.80
2024-04-25T13:56:35.239Z,9.60
2024-04-25T13:59:04.865Z,9.40
2024-04-25T14:01:32.573Z,9.30
2024-04-25T14:04:02.329Z,9.20
2024-04-25T14:06:31.353Z,9.10
2024-04-25T14:08:58.250Z,9.00
2024-04-25T14:11:25.225Z,8.90
2024-04-25T14:13:54.139Z,8.90
2024-04-25T14:16:21.864Z,8.80
2024-04-25T14:18:51.208Z,8.80
2024-04-25T14:21:20.187Z,8.80
2024-04-25T14:23:47.207Z,8.80
2024-04-25T14:26:33.047Z,8.80
2024-04-25T14:29:00.292Z,8.80
2024-04-25T14:31:27.160Z,8.80
2024-04-25T14:33:56.426Z,8.70
2024-04-25T14:36:23.408Z,8.60
2024-04-25T14:38:50.621Z,8.50
2024-04-25T14:41:19.264Z,8.60
2024-04-25T14:43:51.802Z,8.70
2024-04-25T14:46:24.925Z,8.80
2024-04-25T14:48:53.085Z,8.80
2024-04-25T14:51:20.105Z,8.80
2024-04-25T14:53:52.076Z,8.70
2024-04-25T14:56:19.016Z,8.70
2024-04-25T14:58:46.016Z,8.70
2024-04-25T15:01:20.457Z,8.70
2024-04-25T15:03:57.678Z,8.60
2024-04-25T15:06:24.702Z,8.60
2024-04-25T15:08:51.618Z,8.60
2024-04-25T15:11:20.242Z,8.50
2024-04-25T15:13:47.222Z,8.50
2024-04-25T15:16:14.065Z,8.60
2024-04-25T15:18:42.685Z,8.70
2024-04-25T15:21:10.863Z,8.90
2024-04-25T15:23:40.874Z,8.90
2024-04-25T15:26:07.809Z,9.10
2024-04-25T15:28:35.416Z,9.10
2024-04-25T15:31:02.439Z,9.20
2024-04-25T15:33:29.527Z,9.20
2024-04-25T15:35:56.576Z,9.10
2024-04-25T15:38:25.064Z,9.20
2024-04-25T15:40:51.933Z,9.20
2024-04-25T15:43:18.810Z,9.30
2024-04-25T15:45:45.663Z,9.30
2024-04-25T15:48:14.703Z,9.20
2024-04-25T15:50:41.660Z,9.30
2024-04-25T15:53:09.785Z,9.40
2024-04-25T15:55:38.441Z,9.40
2024-04-25T15:58:05.539Z,9.30
2024-04-25T16:00:32.395Z,9.10
2024-04-25T16:02:59.680Z,9.00
2024-04-25T16:05:26.882Z,9.10
2024-04-25T16:07:59.215Z,9.10
2024-04-25T16:10:26.117Z,9.00
2024-04-25T16:12:52.947Z,9.10
2024-04-25T16:15:19.785Z,9.10
2024-04-25T16:17:47.939Z,9.10
2024-04-25T16:20:14.988Z,9.10
2024-04-25T16:22:41.886Z,9.10
2024-04-25T16:25:10.796Z,9.00
2024-04-25T16:27:37.690Z,8.90
2024-04-25T16:30:05.612Z,8.80
2024-04-25T16:32:35.794Z,8.80
2024-04-25T16:35:03.818Z,8.70
2024-04-25T16:37:30.779Z,8.70
2024-04-25T16:40:00.483Z,8.80
2024-04-25T16:42:27.646Z,8.90
2024-04-25T16:44:55.907Z,9.10
2024-04-25T16:47:24.499Z,9.10
2024-04-25T16:49:51.429Z,9.20
2024-04-25T16:52:18.266Z,9.30
2024-04-25T16:54:45.161Z,9.30
2024-04-25T16:57:12.083Z,9.30
2024-04-25T16:59:39.511Z,9.30
2024-04-25T17:02:07.266Z,9.30
2024-04-25T17:04:39.731Z,9.30
2024-04-25T17:07:07.368Z,9.30
2024-04-25T17:09:34.721Z,9.40
2024-04-25T17:12:02.214Z,9.40
2024-04-25T17:14:29.257Z,9.40
2024-04-25T17:17:02.387Z,9.40
2024-04-25T17:19:30.386Z,9.30
2024-04-25T17:21:59.318Z,9.30
2024-04-25T17:24:26.332Z,9.20
2024-04-25T17:26:53.242Z,9.20
2024-04-25T17:29:21.608Z,9.20
2024-04-25T17:31:48.719Z,9.10
2024-04-25T17:34:15.957Z,9.10
2024-04-25T17:36:47.192Z,9.00
2024-04-25T17:39:14.575Z,9.00
2024-04-25T17:41:41.984Z,9.00
2024-04-25T17:44:08.928Z,9.00
2024-04-25T17:46:35.808Z,9.00
2024-04-25T17:49:12.149Z,9.00
2024-04-25T17:51:42.977Z,9.00
2024-04-25T17:54:12.124Z,9.00
2024-04-25T17:56:40.610Z,8.90
2024-04-25T17:59:07.652Z,8.90
2024-04-25T18:01:35.733Z,8.90
2024-04-25T18:04:02.586Z,8.80
2024-04-25T18:06:29.423Z,8.80
2024-04-25T18:08:58.234Z,8.70
2024-04-25T18:11:25.238Z,8.70
2024-04-25T18:13:52.180Z,8.60
2024-04-25T18:16:19.052Z,8.50
2024-04-25T18:18:46.913Z,8.50
2024-04-25T18:21:13.784Z,8.40
2024-04-25T18:23:40.706Z,8.30
2024-04-25T18:26:10.600Z,8.20
2024-04-25T18:28:41.323Z,8.10
2024-04-25T18:31:08.178Z,8.10
2024-04-25T18:33:35.124Z,8.00
2024-04-25T18:36:02.121Z,7.90
2024-04-25T18:38:29.013Z,7.90
2024-04-25T18:40:55.914Z,7.80
2024-04-25T18:43:22.758Z,7.70
2024-04-25T18:45:49.628Z,7.60
2024-04-25T18:48:17.927Z,7.50
2024-04-25T18:50:45.094Z,7.40
2024-04-25T18:53:11.986Z,7.30
2024-04-25T18:55:39.098Z,7.20
2024-04-25T18:58:07.628Z,7.10
2024-04-25T19:00:37.146Z,7.00
2024-04-25T19:03:05.184Z,6.90
2024-04-25T19:05:32.222Z,6.80
2024-04-25T19:07:59.157Z,6.70
2024-04-25T19:10:26.127Z,6.60
2024-04-25T19:12:53.021Z,6.40
2024-04-25T19:15:21.993Z,6.30
2024-04-25T19:17:49.015Z,6.20
2024-04-25T19:20:16.008Z,6.10
2024-04-25T19:22:44.436Z,6.00
2024-04-25T19:25:12.513Z,5.90
2024-04-25T19:27:39.395Z,5.80
2024-04-25T19:30:07.312Z,5.70
2024-04-25T19:32:34.361Z,5.70
2024-04-25T19:35:01.237Z,5.60
2024-04-25T19:37:29.928Z,5.50
2024-04-25T19:39:58.262Z,5.50
2024-04-25T19:42:26.958Z,5.40
2024-04-25T19:44:53.905Z,5.40
2024-04-25T19:47:20.891Z,5.30
2024-04-25T19:49:47.818Z,5.20
2024-04-25T19:52:15.076Z,5.10
2024-04-25T19:54:42.615Z,5.00
2024-04-25T19:57:17.841Z,5.00
2024-04-25T19:59:45.081Z,4.90
2024-04-25T20:02:12.437Z,4.90
2024-04-25T20:04:39.419Z,4.80
2024-04-25T20:07:06.344Z,4.80
2024-04-25T20:09:33.183Z,4.80
2024-04-25T20:12:01.505Z,4.70
2024-04-25T20:14:29.807Z,4.70
2024-04-25T20:16:56.697Z,4.70
2024-04-25T20:19:42.194Z,4.70
2024-04-25T20:22:09.898Z,4.70
2024-04-25T20:24:36.815Z,4.70
2024-04-25T20:27:03.941Z,4.60
2024-04-25T20:29:32.372Z,4.60
2024-04-25T20:31:59.652Z,4.60
2024-04-25T20:34:26.626Z,4.60
2024-04-25T20:36:53.543Z,4.50
2024-04-25T20:39:21.411Z,4.50
2024-04-25T20:41:49.736Z,4.40
2024-04-25T20:44:17.415Z,4.40
2024-04-25T20:46:44.382Z,4.30
2024-04-25T20:49:11.254Z,4.20
2024-04-25T20:51:41.053Z,4.20
2024-04-25T20:54:10.574Z,4.20
2024-04-25T20:56:41.649Z,4.10
2024-04-25T20:59:10.220Z,4.00
2024-04-25T21:01:39.958Z,4.00
2024-04-25T21:04:06.942Z,4.00
2024-04-25T21:06:41.866Z,3.90
2024-04-25T21:09:11.469Z,3.80
2024-04-25T21:11:38.818Z,3.80
2024-04-25T21:14:06.172Z,3.80
2024-04-25T21:16:40.695Z,3.70
2024-04-25T21:19:08.009Z,3.70
2024-04-25T21:21:34.879Z,3.70
2024-04-25T21:24:01.861Z,3.60
2024-04-25T21:26:28.914Z,3.60
2024-04-25T21:28:56.910Z,3.60
2024-04-25T21:31:25.245Z,3.60
2024-04-25T21:33:52.335Z,3.60
2024-04-25T21:36:19.393Z,3.60
2024-04-25T21:38:46.269Z,3.60
2024-04-25T21:41:14.141Z,3.50
2024-04-25T21:43:42.616Z,3.50
2024-04-25T21:46:12.321Z,3.40
2024-04-25T21:48:48.017Z,3.50
2024-04-25T21:51:16.952Z,3.40
2024-04-25T21:53:46.164Z,3.40
2024-04-25T21:56:17.918Z,3.40
2024-04-25T21:58:45.401Z,3.30
2024-04-25T22:01:12.624Z,3.30
2024-04-25T22:03:43.255Z,3.30
2024-04-25T22:06:18.766Z,3.30
2024-04-25T22:08:46.328Z,3.30
2024-04-25T22:11:14.038Z,3.30
2024-04-25T22:13:42.707Z,3.20
2024-04-25T22:16:11.335Z,3.20
2024-04-25T22:18:40.022Z,3.10
2024-04-25T22:21:07.520Z,3.10
2024-04-25T22:23:38.230Z,3.10
2024-04-25T22:26:05.347Z,3.10
2024-04-25T22:28:32.249Z,3.10
2024-04-25T22:30:59.086Z,3.00
2024-04-25T22:33:28.007Z,3.00
2024-04-25T22:35:55.037Z,3.00
2024-04-25T22:38:21.965Z,3.00
2024-04-25T22:40:49.492Z,3.00
2024-04-25T22:43:16.369Z,3.00
2024-04-25T22:45:43.210Z,2.90
2024-04-25T22:48:11.649Z,2.90
2024-04-25T22:50:38.767Z,2.90
2024-04-25T22:53:05.746Z,2.90
2024-04-25T22:55:32.636Z,2.90
2024-04-25T22:58:00.570Z,2.80
2024-04-25T23:00:28.765Z,2.80
2024-04-25T23:02:56.438Z,2.70
2024-04-25T23:05:34.695Z,2.70
2024-04-25T23:08:02.168Z,2.70
2024-04-25T23:10:30.217Z,2.60
2024-04-25T23:12:57.069Z,2.60
2024-04-25T23:15:24.014Z,2.60
2024-04-25T23:17:50.997Z,2.60
2024-04-25T23:20:17.903Z,2.60
2024-04-25T23:22:45.232Z,2.50
2024-04-25T23:25:12.071Z,2.40
2024-04-25T23:27:38.933Z,2.40
2024-04-25T23:30:06.618Z,2.40
2024-04-25T23:32:33.514Z,2.40
2024-04-25T23:35:00.368Z,2.40
2024-04-25T23:37:27.231Z,2.40
2024-04-25T23:40:00.609Z,2.30
2024-04-25T23:42:30.560Z,2.40
2024-04-25T23:44:57.487Z,2.40
2024-04-25T23:47:26.478Z,2.40
2024-04-25T23:49:53.369Z,2.40
2024-04-25T23:52:20.564Z,2.40
2024-04-25T23:54:47.786Z,2.40
2024-04-25T23:57:14.993Z,2.40
2024-04-25T23:59:42.215Z,2.40
